createdAt,value
2018-06-27T00:00:04.049Z,86.52
2018-06-27T00:01:04.005Z,85.94
2018-06-27T00:02:04.012Z,85.85
2018-06-27T00:03:03.975Z,85.85
2018-06-27T00:04:03.967Z,86.04
2018-06-27T00:05:03.947Z,85.66
2018-06-27T00:06:03.946Z,85.85
2018-06-27T00:07:03.928Z,85.75
2018-06-27T00:08:03.921Z,85.85
2018-06-27T00:09:03.907Z,84.80
2018-06-27T00:10:03.897Z,85.47
2018-06-27T00:11:03.915Z,86.33
2018-06-27T00:12:03.887Z,86.23
2018-06-27T00:13:03.877Z,86.23
2018-06-27T00:14:03.843Z,86.80
2018-06-27T00:15:03.835Z,86.33
2018-06-27T00:16:03.823Z,86.90
2018-06-27T00:17:03.811Z,86.90
2018-06-27T00:18:03.841Z,87.29
2018-06-27T00:19:03.788Z,87.38
2018-06-27T00:20:03.784Z,87.09
2018-06-27T00:21:03.763Z,87.29
2018-06-27T00:22:03.758Z,87.29
2018-06-27T00:23:03.807Z,87.19
2018-06-27T00:24:03.737Z,86.61
2018-06-27T00:25:03.728Z,86.71
2018-06-27T00:26:03.715Z,86.90
2018-06-27T00:27:03.695Z,87.95
2018-06-27T00:28:03.847Z,87.66
2018-06-27T00:29:03.697Z,87.95
2018-06-27T00:30:03.677Z,87.95
2018-06-27T00:31:03.662Z,86.90
2018-06-27T00:32:03.649Z,87.38
2018-06-27T00:33:03.644Z,87.38
2018-06-27T00:34:03.646Z,87.19
2018-06-27T00:35:03.612Z,87.38
2018-06-27T00:36:03.598Z,87.48
2018-06-27T00:37:03.579Z,87.57
2018-06-27T00:38:03.576Z,87.29
2018-06-27T00:39:03.559Z,87.95
2018-06-27T00:40:03.585Z,87.38
2018-06-27T00:41:03.538Z,88.15
2018-06-27T00:42:03.528Z,88.15
2018-06-27T00:43:03.526Z,87.57
2018-06-27T00:44:03.507Z,87.66
2018-06-27T00:45:03.537Z,87.38
2018-06-27T00:46:03.492Z,88.15
2018-06-27T00:47:03.472Z,87.95
2018-06-27T00:48:03.459Z,87.57
2018-06-27T00:49:03.445Z,87.66
2018-06-27T00:50:03.463Z,87.95
2018-06-27T00:51:03.424Z,87.66
2018-06-27T00:52:03.410Z,87.86
2018-06-27T00:53:03.394Z,87.66
2018-06-27T00:54:03.386Z,87.66
2018-06-27T00:55:03.420Z,87.57
2018-06-27T00:56:03.373Z,87.95
2018-06-27T00:57:03.349Z,88.05
2018-06-27T00:58:03.459Z,87.86
2018-06-27T00:59:03.345Z,87.86
2018-06-27T01:00:03.360Z,87.86
2018-06-27T01:01:03.308Z,87.86
2018-06-27T01:02:03.325Z,87.86
2018-06-27T01:03:03.293Z,87.86
2018-06-27T01:04:03.276Z,87.76
2018-06-27T01:05:03.305Z,87.86
2018-06-27T01:06:03.258Z,87.66
2018-06-27T01:07:03.241Z,87.48
2018-06-27T01:08:03.225Z,87.76
2018-06-27T01:09:03.226Z,88.05
2018-06-27T01:10:03.646Z,88.43
2018-06-27T01:11:03.198Z,88.53
2018-06-27T01:12:03.181Z,87.86
2018-06-27T01:13:03.173Z,88.43
2018-06-27T01:14:03.167Z,88.34
2018-06-27T01:15:03.151Z,88.43
2018-06-27T01:16:03.144Z,88.43
2018-06-27T01:17:03.162Z,88.34
2018-06-27T01:18:03.122Z,88.53
2018-06-27T01:19:03.097Z,87.86
2018-06-27T01:20:03.109Z,88.43
2018-06-27T01:21:03.137Z,88.34
2018-06-27T01:22:03.065Z,88.34
2018-06-27T01:23:03.070Z,88.24
2018-06-27T01:24:03.046Z,88.43
2018-06-27T01:25:03.049Z,88.43
2018-06-27T01:26:03.056Z,88.05
2018-06-27T01:27:03.031Z,88.43
2018-06-27T01:28:03.012Z,88.43
2018-06-27T01:29:02.987Z,88.39
2018-06-27T01:30:02.975Z,88.29
2018-06-27T01:31:02.973Z,88.20
2018-06-27T01:32:02.952Z,88.01
2018-06-27T01:33:03.006Z,88.58
2018-06-27T01:34:02.940Z,88.20
2018-06-27T01:35:02.921Z,88.48
2018-06-27T01:36:02.912Z,89.25
2018-06-27T01:37:02.905Z,88.87
2018-06-27T01:38:02.892Z,88.87
2018-06-27T01:39:02.909Z,88.77
2018-06-27T01:40:02.867Z,88.77
2018-06-27T01:41:02.877Z,88.96
2018-06-27T01:42:02.843Z,89.06
2018-06-27T01:43:02.833Z,88.96
2018-06-27T01:44:02.823Z,88.96
2018-06-27T01:45:02.806Z,88.96
2018-06-27T01:46:02.796Z,88.87
2018-06-27T01:47:02.795Z,89.15
2018-06-27T01:48:02.774Z,89.06
2018-06-27T01:49:02.759Z,88.87
2018-06-27T01:50:03.021Z,89.06
2018-06-27T01:51:02.740Z,89.25
2018-06-27T01:52:02.726Z,88.96
2018-06-27T01:53:02.726Z,88.77
2018-06-27T01:54:02.707Z,89.15
2018-06-27T01:55:02.692Z,88.39
2018-06-27T01:56:02.704Z,88.87
2018-06-27T01:57:02.675Z,89.15
2018-06-27T01:58:02.657Z,88.96
2018-06-27T01:59:02.631Z,89.06
2018-06-27T02:00:02.650Z,88.96
2018-06-27T02:01:02.682Z,89.34
2018-06-27T02:02:02.604Z,89.53
2018-06-27T02:03:02.604Z,88.72
2018-06-27T02:04:02.589Z,88.77
2018-06-27T02:05:02.574Z,89.15
2018-06-27T02:06:02.566Z,89.25
2018-06-27T02:07:02.630Z,89.15
2018-06-27T02:08:02.536Z,89.25
2018-06-27T02:09:02.523Z,89.34
2018-06-27T02:10:02.518Z,89.06
2018-06-27T02:11:02.507Z,88.91
2018-06-27T02:12:02.496Z,88.77
2018-06-27T02:13:02.488Z,88.87
2018-06-27T02:14:02.469Z,89.15
2018-06-27T02:15:02.462Z,89.15
2018-06-27T02:16:02.445Z,89.34
2018-06-27T02:17:02.591Z,89.63
2018-06-27T02:18:02.434Z,88.72
2018-06-27T02:19:02.415Z,88.96
2018-06-27T02:20:02.399Z,88.77
2018-06-27T02:21:02.400Z,89.06
2018-06-27T02:22:02.377Z,88.77
2018-06-27T02:23:02.375Z,88.91
2018-06-27T02:24:02.360Z,88.87
2018-06-27T02:25:02.340Z,89.06
2018-06-27T02:26:02.332Z,88.81
2018-06-27T02:27:02.310Z,88.77
2018-06-27T02:28:02.327Z,88.77
2018-06-27T02:29:02.677Z,88.77
2018-06-27T02:30:02.281Z,88.77
2018-06-27T02:31:02.279Z,88.58
2018-06-27T02:32:02.290Z,88.48
2018-06-27T02:33:02.247Z,89.01
2018-06-27T02:34:02.232Z,89.15
2018-06-27T02:35:02.271Z,88.96
2018-06-27T02:36:02.215Z,88.39
2018-06-27T02:37:02.202Z,89.10
2018-06-27T02:38:02.198Z,88.39
2018-06-27T02:39:02.182Z,88.20
2018-06-27T02:40:02.185Z,88.62
2018-06-27T02:41:02.161Z,88.34
2018-06-27T02:42:02.147Z,89.29
2018-06-27T02:43:02.131Z,88.91
2018-06-27T02:44:02.127Z,88.81
2018-06-27T02:45:02.144Z,89.01
2018-06-27T02:46:02.196Z,88.91
2018-06-27T02:47:02.080Z,88.68
2018-06-27T02:48:02.068Z,88.58
2018-06-27T02:49:02.064Z,88.39
2018-06-27T02:50:02.057Z,88.58
2018-06-27T02:51:02.195Z,88.43
2018-06-27T02:52:02.020Z,88.58
2018-06-27T02:53:02.024Z,88.39
2018-06-27T02:54:02.008Z,87.91
2018-06-27T02:55:01.999Z,88.24
2018-06-27T02:56:01.991Z,88.29
2018-06-27T02:57:01.983Z,88.39
2018-06-27T02:58:01.995Z,88.62
2018-06-27T02:59:01.950Z,88.62
2018-06-27T03:00:01.945Z,88.10
2018-06-27T03:01:01.927Z,88.20
2018-06-27T03:02:01.916Z,88.39
2018-06-27T03:03:01.906Z,88.58
2018-06-27T03:04:01.887Z,88.29
2018-06-27T03:05:01.885Z,88.96
2018-06-27T03:06:01.871Z,89.15
2018-06-27T03:07:01.890Z,88.87
2018-06-27T03:08:01.866Z,88.39
2018-06-27T03:09:01.827Z,88.39
2018-06-27T03:10:01.821Z,88.58
2018-06-27T03:11:01.797Z,88.39
2018-06-27T03:12:01.796Z,88.58
2018-06-27T03:13:01.837Z,88.58
2018-06-27T03:14:01.773Z,88.20
2018-06-27T03:15:01.762Z,88.29
2018-06-27T03:16:01.750Z,88.10
2018-06-27T03:17:01.743Z,88.58
2018-06-27T03:18:01.750Z,88.20
2018-06-27T03:19:01.716Z,88.39
2018-06-27T03:20:01.717Z,87.82
2018-06-27T03:21:01.689Z,88.48
2018-06-27T03:22:01.681Z,88.77
2018-06-27T03:23:01.701Z,88.48
2018-06-27T03:24:01.653Z,88.39
2018-06-27T03:25:01.656Z,88.20
2018-06-27T03:26:01.630Z,88.01
2018-06-27T03:27:01.619Z,88.39
2018-06-27T03:28:01.612Z,88.58
2018-06-27T03:29:01.596Z,88.39
2018-06-27T03:30:01.582Z,88.20
2018-06-27T03:31:01.578Z,88.68
2018-06-27T03:32:01.580Z,88.20
2018-06-27T03:33:01.586Z,88.20
2018-06-27T03:34:01.554Z,88.20
2018-06-27T03:35:01.683Z,88.20
2018-06-27T03:36:01.519Z,88.10
2018-06-27T03:37:01.501Z,88.39
2018-06-27T03:38:01.491Z,88.39
2018-06-27T03:39:01.480Z,88.39
2018-06-27T03:40:01.464Z,87.72
2018-06-27T03:41:01.716Z,88.10
2018-06-27T03:42:01.444Z,88.48
2018-06-27T03:43:01.440Z,88.39
2018-06-27T03:44:01.448Z,88.68
2018-06-27T03:45:01.416Z,87.91
2018-06-27T03:46:01.408Z,88.10
2018-06-27T03:47:01.391Z,88.01
2018-06-27T03:48:01.391Z,88.29
2018-06-27T03:49:01.367Z,88.20
2018-06-27T03:50:01.359Z,87.96
2018-06-27T03:51:01.333Z,88.01
2018-06-27T03:52:01.361Z,88.29
2018-06-27T03:53:01.314Z,88.29
2018-06-27T03:54:01.307Z,88.20
2018-06-27T03:55:01.290Z,88.10
2018-06-27T03:56:01.287Z,88.39
2018-06-27T03:57:01.313Z,88.20
2018-06-27T03:58:01.281Z,88.58
2018-06-27T03:59:01.308Z,88.58
2018-06-27T04:00:01.232Z,88.20
2018-06-27T04:01:01.226Z,88.20
2018-06-27T04:02:01.239Z,88.20
2018-06-27T04:03:01.244Z,88.20
2018-06-27T04:04:01.188Z,88.10
2018-06-27T04:05:01.171Z,88.01
2018-06-27T04:06:01.159Z,88.20
2018-06-27T04:07:01.154Z,88.20
2018-06-27T04:08:01.170Z,88.48
2018-06-27T04:09:01.122Z,88.34
2018-06-27T04:10:01.122Z,88.25
2018-06-27T04:11:01.130Z,88.39
2018-06-27T04:12:01.246Z,87.82
2018-06-27T04:13:01.253Z,87.62
2018-06-27T04:14:01.070Z,87.87
2018-06-27T04:15:01.059Z,87.91
2018-06-27T04:16:01.038Z,87.91
2018-06-27T04:17:01.029Z,87.72
2018-06-27T04:18:01.228Z,87.62
2018-06-27T04:19:01.049Z,87.62
2018-06-27T04:20:01.000Z,87.82
2018-06-27T04:21:00.989Z,87.91
2018-06-27T04:22:00.972Z,87.91
2018-06-27T04:23:00.964Z,87.91
2018-06-27T04:24:00.954Z,87.53
2018-06-27T04:25:00.958Z,87.82
2018-06-27T04:26:00.932Z,87.82
2018-06-27T04:27:00.912Z,88.01
2018-06-27T04:28:00.945Z,88.01
2018-06-27T04:29:00.895Z,88.01
2018-06-27T04:30:00.879Z,88.39
2018-06-27T04:31:00.869Z,87.72
2018-06-27T04:32:00.857Z,88.39
2018-06-27T04:33:00.879Z,87.82
2018-06-27T04:34:01.039Z,88.01
2018-06-27T04:35:00.817Z,87.82
2018-06-27T04:36:00.846Z,87.62
2018-06-27T04:37:00.789Z,87.82
2018-06-27T04:38:00.808Z,87.82
2018-06-27T04:39:00.802Z,87.62
2018-06-27T04:40:00.752Z,87.82
2018-06-27T04:41:00.751Z,87.62
2018-06-27T04:42:00.734Z,87.82
2018-06-27T04:43:00.729Z,87.82
2018-06-27T04:44:00.720Z,87.72
2018-06-27T04:45:00.730Z,88.01
2018-06-27T04:46:00.705Z,88.01
2018-06-27T04:47:00.674Z,88.39
2018-06-27T04:48:00.664Z,88.29
2018-06-27T04:49:00.664Z,88.10
2018-06-27T04:50:00.676Z,88.58
2018-06-27T04:51:00.715Z,87.91
2018-06-27T04:52:00.624Z,87.43
2018-06-27T04:53:00.618Z,87.62
2018-06-27T04:54:00.599Z,87.91
2018-06-27T04:55:00.680Z,87.62
2018-06-27T04:56:00.644Z,87.43
2018-06-27T04:57:00.564Z,88.01
2018-06-27T04:58:00.556Z,87.91
2018-06-27T04:59:00.537Z,87.82
2018-06-27T05:00:00.527Z,87.82
2018-06-27T05:01:00.521Z,88.20
2018-06-27T05:02:00.533Z,88.39
2018-06-27T05:03:00.496Z,88.01
2018-06-27T05:04:00.472Z,88.20
2018-06-27T05:05:00.473Z,88.05
2018-06-27T05:06:00.486Z,88.01
2018-06-27T05:07:00.445Z,88.39
2018-06-27T05:08:00.439Z,88.43
2018-06-27T05:09:00.422Z,88.24
2018-06-27T05:10:00.413Z,87.62
2018-06-27T05:11:00.459Z,88.20
2018-06-27T05:12:00.388Z,88.01
2018-06-27T05:13:00.378Z,88.20
2018-06-27T05:14:00.354Z,88.39
2018-06-27T05:15:00.353Z,88.77
2018-06-27T05:16:00.369Z,88.77
2018-06-27T05:17:00.477Z,88.68
2018-06-27T05:18:00.316Z,88.77
2018-06-27T05:19:00.316Z,88.77
2018-06-27T05:20:00.300Z,88.68
2018-06-27T05:21:00.289Z,88.87
2018-06-27T05:22:00.271Z,88.87
2018-06-27T05:23:00.270Z,88.87
2018-06-27T05:24:00.287Z,88.77
2018-06-27T05:25:00.237Z,89.06
2018-06-27T05:26:00.226Z,88.77
2018-06-27T05:27:00.219Z,89.06
2018-06-27T05:28:00.217Z,88.96
2018-06-27T05:29:00.186Z,88.81
2018-06-27T05:30:00.183Z,88.81
2018-06-27T05:31:00.182Z,89.01
2018-06-27T05:32:00.159Z,88.53
2018-06-27T05:33:00.148Z,88.62
2018-06-27T05:34:00.194Z,88.81
2018-06-27T05:35:00.125Z,89.01
2018-06-27T05:36:00.116Z,88.91
2018-06-27T05:37:00.103Z,89.20
2018-06-27T05:38:00.125Z,89.10
2018-06-27T05:39:00.115Z,89.10
2018-06-27T05:40:00.064Z,89.20
2018-06-27T05:41:00.055Z,88.81
2018-06-27T05:42:00.060Z,88.91
2018-06-27T05:43:00.032Z,88.81
2018-06-27T05:44:00.050Z,88.81
2018-06-27T05:45:00.019Z,88.91
2018-06-27T05:46:00.006Z,88.53
2018-06-27T05:46:59.998Z,88.81
2018-06-27T05:47:59.976Z,88.91
2018-06-27T05:49:00.002Z,89.01
2018-06-27T05:49:59.955Z,88.81
2018-06-27T05:50:59.949Z,88.62
2018-06-27T05:51:59.937Z,89.01
2018-06-27T05:52:59.921Z,88.62
2018-06-27T05:53:59.959Z,89.10
2018-06-27T05:54:59.904Z,88.81
2018-06-27T05:55:59.893Z,88.81
2018-06-27T05:56:59.877Z,89.01
2018-06-27T05:57:59.874Z,89.24
2018-06-27T05:58:59.864Z,88.86
2018-06-27T05:59:59.901Z,88.86
2018-06-27T06:00:59.840Z,88.81
2018-06-27T06:01:59.825Z,88.86
2018-06-27T06:02:59.811Z,88.86
2018-06-27T06:03:59.804Z,89.05
2018-06-27T06:04:59.782Z,89.24
2018-06-27T06:05:59.788Z,89.05
2018-06-27T06:06:59.769Z,88.86
2018-06-27T06:07:59.771Z,89.15
2018-06-27T06:08:59.749Z,89.15
2018-06-27T06:09:59.761Z,88.86
2018-06-27T06:10:59.757Z,88.95
2018-06-27T06:11:59.723Z,88.95
2018-06-27T06:12:59.704Z,88.67
2018-06-27T06:13:59.686Z,88.95
2018-06-27T06:14:59.714Z,88.81
2018-06-27T06:15:59.736Z,88.71
2018-06-27T06:16:59.661Z,88.71
2018-06-27T06:17:59.654Z,88.71
2018-06-27T06:18:59.635Z,89.09
2018-06-27T06:19:59.637Z,88.13
2018-06-27T06:20:59.619Z,88.33
2018-06-27T06:21:59.653Z,88.13
2018-06-27T06:22:59.607Z,88.13
2018-06-27T06:23:59.658Z,88.13
2018-06-27T06:24:59.576Z,88.33
2018-06-27T06:25:59.576Z,88.13
2018-06-27T06:26:59.563Z,88.52
2018-06-27T06:27:59.549Z,87.95
2018-06-27T06:28:59.544Z,88.33
2018-06-27T06:29:59.560Z,88.52
2018-06-27T06:30:59.532Z,88.52
2018-06-27T06:31:59.501Z,88.47
2018-06-27T06:32:59.500Z,88.28
2018-06-27T06:33:59.764Z,88.52
2018-06-27T06:34:59.488Z,88.37
2018-06-27T06:35:59.466Z,88.47
2018-06-27T06:36:59.454Z,87.99
2018-06-27T06:37:59.449Z,87.80
2018-06-27T06:38:59.580Z,88.47
2018-06-27T06:39:59.424Z,87.80
2018-06-27T06:40:59.427Z,87.70
2018-06-27T06:41:59.412Z,87.99
2018-06-27T06:42:59.399Z,88.09
2018-06-27T06:43:59.384Z,87.90
2018-06-27T06:44:59.394Z,87.70
2018-06-27T06:45:59.433Z,87.70
2018-06-27T06:46:59.795Z,87.80
2018-06-27T06:47:59.352Z,88.47
2018-06-27T06:48:59.349Z,87.80
2018-06-27T06:49:59.325Z,88.42
2018-06-27T06:50:59.321Z,87.65
2018-06-27T06:51:59.309Z,87.46
2018-06-27T06:52:59.301Z,87.08
2018-06-27T06:53:59.291Z,87.27
2018-06-27T06:54:59.276Z,87.08
2018-06-27T06:55:59.278Z,87.08
2018-06-27T06:56:59.251Z,87.46
2018-06-27T06:57:59.256Z,87.37
2018-06-27T06:58:59.238Z,87.94
2018-06-27T06:59:59.240Z,87.84
2018-06-27T07:00:59.225Z,87.94
2018-06-27T07:01:59.211Z,87.74
2018-06-27T07:02:59.243Z,87.94
2018-06-27T07:03:59.190Z,87.84
2018-06-27T07:04:59.210Z,87.74
2018-06-27T07:05:59.174Z,88.51
2018-06-27T07:06:59.155Z,87.74
2018-06-27T07:07:59.209Z,87.84
2018-06-27T07:08:59.147Z,87.94
2018-06-27T07:09:59.134Z,88.03
2018-06-27T07:10:59.150Z,87.98
2018-06-27T07:11:59.118Z,88.03
2018-06-27T07:12:59.249Z,87.21
2018-06-27T07:13:59.101Z,87.46
2018-06-27T07:14:59.086Z,87.98
2018-06-27T07:15:59.073Z,87.98
2018-06-27T07:16:59.058Z,88.08
2018-06-27T07:17:59.266Z,87.88
2018-06-27T07:18:59.088Z,87.70
2018-06-27T07:19:59.043Z,87.60
2018-06-27T07:20:59.033Z,87.88
2018-06-27T07:21:59.019Z,87.88
2018-06-27T07:22:59.021Z,87.88
2018-06-27T07:23:59.024Z,88.08
2018-06-27T07:24:59.010Z,87.60
2018-06-27T07:25:59.020Z,87.45
2018-06-27T07:26:58.974Z,87.60
2018-06-27T07:27:58.970Z,87.02
2018-06-27T07:28:58.943Z,86.97
2018-06-27T07:29:58.968Z,86.93
2018-06-27T07:30:59.302Z,87.07
2018-06-27T07:31:58.941Z,86.83
2018-06-27T07:32:58.917Z,87.31
2018-06-27T07:33:58.908Z,87.88
2018-06-27T07:34:58.897Z,87.70
2018-06-27T07:35:58.938Z,87.88
2018-06-27T07:36:58.877Z,87.93
2018-06-27T07:37:58.868Z,87.74
2018-06-27T07:38:58.864Z,87.55
2018-06-27T07:39:58.868Z,87.26
2018-06-27T07:40:59.295Z,87.16
2018-06-27T07:41:58.842Z,87.74
2018-06-27T07:42:59.766Z,87.07
2018-06-27T07:43:58.835Z,88.12
2018-06-27T07:44:59.158Z,88.12
2018-06-27T07:45:58.986Z,87.93
2018-06-27T07:46:58.929Z,87.35
2018-06-27T07:47:58.909Z,87.16
2018-06-27T07:48:58.768Z,86.97
2018-06-27T07:49:58.761Z,86.58
2018-06-27T07:50:58.756Z,86.88
2018-06-27T07:51:58.745Z,86.97
2018-06-27T07:52:58.786Z,87.07
2018-06-27T07:53:58.755Z,86.97
2018-06-27T07:54:58.717Z,87.26
2018-06-27T07:55:58.709Z,87.07
2018-06-27T07:56:58.704Z,86.97
2018-06-27T07:57:58.680Z,86.97
2018-06-27T07:58:58.757Z,86.78
2018-06-27T07:59:58.689Z,87.07
2018-06-27T08:00:58.669Z,87.64
2018-06-27T08:01:58.668Z,87.64
2018-06-27T08:02:58.644Z,86.88
2018-06-27T08:03:58.630Z,86.88
2018-06-27T08:04:58.629Z,86.88
2018-06-27T08:05:58.694Z,86.88
2018-06-27T08:06:58.609Z,87.07
2018-06-27T08:07:58.603Z,87.26
2018-06-27T08:08:58.600Z,87.35
2018-06-27T08:09:58.592Z,86.78
2018-06-27T08:10:58.584Z,87.07
2018-06-27T08:11:58.571Z,86.88
2018-06-27T08:12:58.556Z,86.97
2018-06-27T08:13:58.540Z,86.88
2018-06-27T08:14:58.602Z,86.49
2018-06-27T08:15:58.534Z,86.88
2018-06-27T08:16:58.514Z,86.88
2018-06-27T08:17:58.613Z,87.26
2018-06-27T08:18:58.517Z,86.78
2018-06-27T08:19:58.486Z,87.26
2018-06-27T08:20:58.524Z,86.58
2018-06-27T08:21:58.482Z,87.21
2018-06-27T08:22:58.517Z,86.82
2018-06-27T08:23:58.461Z,86.58
2018-06-27T08:24:58.451Z,86.92
2018-06-27T08:25:58.484Z,86.63
2018-06-27T08:26:58.436Z,86.92
2018-06-27T08:28:01.767Z,86.92
2018-06-27T08:28:58.419Z,86.92
2018-06-27T08:29:58.427Z,87.11
2018-06-27T08:30:58.520Z,86.92
2018-06-27T08:31:58.389Z,86.54
2018-06-27T08:32:58.378Z,86.44
2018-06-27T08:33:58.532Z,85.86
2018-06-27T08:34:58.490Z,86.63
2018-06-27T08:35:58.389Z,86.72
2018-06-27T08:36:58.392Z,87.01
2018-06-27T08:37:58.347Z,86.82
2018-06-27T08:38:58.337Z,87.21
2018-06-27T08:39:58.335Z,87.15
2018-06-27T08:40:58.341Z,87.05
2018-06-27T08:41:58.448Z,87.15
2018-06-27T08:42:58.378Z,86.68
2018-06-27T08:43:58.447Z,86.68
2018-06-27T08:44:59.120Z,86.33
2018-06-27T08:45:58.998Z,87.39
2018-06-27T08:46:58.702Z,87.62
2018-06-27T08:47:58.682Z,88.01
2018-06-27T08:48:58.867Z,87.76
2018-06-27T08:49:59.419Z,87.62
2018-06-27T08:50:59.030Z,87.13
2018-06-27T08:51:58.928Z,87.08
2018-06-27T08:52:58.912Z,87.32
2018-06-27T08:53:59.047Z,86.16
2018-06-27T08:54:58.907Z,84.61
2018-06-27T08:55:59.097Z,83.74
2018-06-27T08:56:58.843Z,83.88
2018-06-27T08:57:58.751Z,84.01
2018-06-27T08:58:59.034Z,80.83
2018-06-27T08:59:58.749Z,76.34
2018-06-27T09:00:58.820Z,77.88
2018-06-27T09:01:59.057Z,77.50
2018-06-27T09:02:58.888Z,78.41
2018-06-27T09:03:58.911Z,75.89
2018-06-27T09:04:58.907Z,72.06
2018-06-27T09:05:58.905Z,74.00
2018-06-27T09:06:59.380Z,75.06
2018-06-27T09:07:59.024Z,72.97
2018-06-27T09:08:59.049Z,72.68
2018-06-27T09:09:58.803Z,75.62
2018-06-27T09:10:58.847Z,75.56
2018-06-27T09:11:58.892Z,74.21
2018-06-27T09:12:59.279Z,70.53
2018-06-27T09:13:58.914Z,70.34
2018-06-27T09:14:58.939Z,72.27
2018-06-27T09:15:58.975Z,73.95
2018-06-27T09:16:59.063Z,72.53
2018-06-27T09:17:58.767Z,72.18
2018-06-27T09:18:58.917Z,70.44
2018-06-27T09:19:58.934Z,72.31
2018-06-27T09:20:58.972Z,72.64
2018-06-27T09:21:58.781Z,73.32
2018-06-27T09:22:58.252Z,66.63
2018-06-27T09:23:58.252Z,69.34
2018-06-27T09:24:58.278Z,66.79
2018-06-27T09:25:58.331Z,68.76
2018-06-27T09:26:58.265Z,70.12
2018-06-27T09:27:58.276Z,70.80
2018-06-27T09:28:58.277Z,71.70
2018-06-27T09:29:58.280Z,69.32
2018-06-27T09:30:58.349Z,69.60
2018-06-27T09:31:58.278Z,65.33
2018-06-27T09:32:58.290Z,65.43
2018-06-27T09:33:58.313Z,66.79
2018-06-27T09:34:58.298Z,67.76
2018-06-27T09:35:58.305Z,65.24
2018-06-27T09:36:58.366Z,64.85
2018-06-27T09:37:58.316Z,67.08
2018-06-27T09:38:58.323Z,67.70
2018-06-27T09:39:58.327Z,68.08
2018-06-27T09:40:58.329Z,66.86
2018-06-27T09:41:58.542Z,66.08
2018-06-27T09:42:58.341Z,67.67
2018-06-27T09:43:58.354Z,68.35
2018-06-27T09:44:58.355Z,62.16
2018-06-27T09:45:58.370Z,63.81
2018-06-27T09:46:58.368Z,64.32
2018-06-27T09:47:58.406Z,60.75
2018-06-27T09:48:58.403Z,63.48
2018-06-27T09:49:58.393Z,64.17
2018-06-27T09:50:58.387Z,61.37
2018-06-27T09:51:58.410Z,59.74
2018-06-27T09:52:58.402Z,59.35
2018-06-27T09:53:58.780Z,56.92
2018-06-27T09:54:58.417Z,60.26
2018-06-27T09:55:58.431Z,60.75
2018-06-27T09:56:58.438Z,61.46
2018-06-27T09:57:58.454Z,62.66
2018-06-27T09:58:58.448Z,61.52
2018-06-27T09:59:58.498Z,55.69
2018-06-27T10:00:58.464Z,58.16
2018-06-27T10:01:58.475Z,59.69
2018-06-27T10:02:58.476Z,58.41
2018-06-27T10:03:58.477Z,58.02
2018-06-27T10:04:58.516Z,53.64
2018-06-27T10:05:58.503Z,54.52
2018-06-27T10:06:58.507Z,56.29
2018-06-27T10:07:58.503Z,56.21
2018-06-27T10:08:58.512Z,55.73
2018-06-27T10:09:58.567Z,55.36
2018-06-27T10:10:58.532Z,55.49
2018-06-27T10:11:58.539Z,55.58
2018-06-27T10:12:58.548Z,53.33
2018-06-27T10:13:58.564Z,54.02
2018-06-27T10:14:58.557Z,54.21
2018-06-27T10:15:58.583Z,54.87
2018-06-27T10:16:58.604Z,55.26
2018-06-27T10:17:58.590Z,55.95
2018-06-27T10:18:58.596Z,52.81
2018-06-27T10:19:58.593Z,50.66
2018-06-27T10:20:58.641Z,53.47
2018-06-27T10:21:58.616Z,51.59
2018-06-27T10:22:58.628Z,45.98
2018-06-27T10:23:58.633Z,49.90
2018-06-27T10:24:58.791Z,51.64
2018-06-27T10:25:58.646Z,52.32
2018-06-27T10:26:58.653Z,53.62
2018-06-27T10:27:58.661Z,54.21
2018-06-27T10:28:58.665Z,54.79
2018-06-27T10:29:58.669Z,55.90
2018-06-27T10:30:58.680Z,55.92
2018-06-27T10:31:58.686Z,55.16
2018-06-27T10:32:58.709Z,48.77
2018-06-27T10:33:58.715Z,52.59
2018-06-27T10:34:58.748Z,52.23
2018-06-27T10:35:58.859Z,52.62
2018-06-27T10:36:58.730Z,48.68
2018-06-27T10:37:58.749Z,49.26
2018-06-27T10:38:58.744Z,47.69
2018-06-27T10:39:58.762Z,51.22
2018-06-27T10:40:58.770Z,51.83
2018-06-27T10:41:58.790Z,52.62
2018-06-27T10:42:58.770Z,50.78
2018-06-27T10:43:58.798Z,51.37
2018-06-27T10:44:58.797Z,52.47
2018-06-27T10:45:58.851Z,49.82
2018-06-27T10:46:58.818Z,51.79
2018-06-27T10:47:58.830Z,50.73
2018-06-27T10:48:58.830Z,44.84
2018-06-27T10:49:58.833Z,47.89
2018-06-27T10:50:58.845Z,49.75
2018-06-27T10:51:58.886Z,50.07
2018-06-27T10:52:58.856Z,50.39
2018-06-27T10:53:58.873Z,50.59
2018-06-27T10:54:58.879Z,50.32
2018-06-27T10:55:58.922Z,49.23
2018-06-27T10:56:59.395Z,50.68
2018-06-27T10:57:58.905Z,45.48
2018-06-27T10:58:58.910Z,44.55
2018-06-27T10:59:58.921Z,44.84
2018-06-27T11:00:58.937Z,42.68
2018-06-27T11:01:58.968Z,47.20
2018-06-27T11:02:58.948Z,46.39
2018-06-27T11:03:59.004Z,47.74
2018-06-27T11:04:58.958Z,47.45
2018-06-27T11:05:58.967Z,45.56
2018-06-27T11:06:58.979Z,42.88
2018-06-27T11:07:58.994Z,46.37
2018-06-27T11:08:58.992Z,47.33
2018-06-27T11:09:58.999Z,49.65
2018-06-27T11:10:59.008Z,48.68
2018-06-27T11:11:59.053Z,45.33
2018-06-27T11:12:59.021Z,45.70
2018-06-27T11:13:59.032Z,48.54
2018-06-27T11:14:59.033Z,50.32
2018-06-27T11:15:59.086Z,49.95
2018-06-27T11:16:59.036Z,49.26
2018-06-27T11:17:59.052Z,49.85
2018-06-27T11:18:59.064Z,49.95
2018-06-27T11:19:59.065Z,49.75
2018-06-27T11:20:59.092Z,47.21
2018-06-27T11:21:59.082Z,42.89
2018-06-27T11:22:59.096Z,41.70
2018-06-27T11:23:59.084Z,42.87
2018-06-27T11:24:59.163Z,45.31
2018-06-27T11:25:59.113Z,45.80
2018-06-27T11:26:59.154Z,49.00
2018-06-27T11:27:59.145Z,49.19
2018-06-27T11:28:59.120Z,51.17
2018-06-27T11:29:59.128Z,51.37
2018-06-27T11:30:59.134Z,50.56
2018-06-27T11:31:59.135Z,50.73
2018-06-27T11:32:59.144Z,47.22
2018-06-27T11:33:59.148Z,43.98
2018-06-27T11:34:59.160Z,45.83
2018-06-27T11:35:59.259Z,48.05
2018-06-27T11:36:59.169Z,47.92
2018-06-27T11:37:59.165Z,50.95
2018-06-27T11:38:59.177Z,48.54
2018-06-27T11:39:59.190Z,48.46
2018-06-27T11:40:59.168Z,49.46
2018-06-27T11:41:59.227Z,48.32
2018-06-27T11:42:59.197Z,49.12
2018-06-27T11:43:59.202Z,50.71
2018-06-27T11:44:59.199Z,50.73
2018-06-27T11:45:59.207Z,40.95
2018-06-27T11:46:59.351Z,43.38
2018-06-27T11:47:59.219Z,42.91
2018-06-27T11:48:59.229Z,45.94
2018-06-27T11:49:59.225Z,47.82
2018-06-27T11:50:59.243Z,47.33
2018-06-27T11:51:59.237Z,46.57
2018-06-27T11:52:59.249Z,46.16
2018-06-27T11:53:59.246Z,47.72
2018-06-27T11:54:59.246Z,48.90
2018-06-27T11:55:59.251Z,47.11
2018-06-27T11:56:59.271Z,48.65
2018-06-27T11:57:59.270Z,49.53
2018-06-27T11:58:59.291Z,40.04
2018-06-27T11:59:59.279Z,44.70
2018-06-27T12:00:59.280Z,47.51
2018-06-27T12:01:59.285Z,48.85
2018-06-27T12:02:59.307Z,50.60
2018-06-27T12:03:59.284Z,47.17
2018-06-27T12:04:59.289Z,49.99
2018-06-27T12:05:59.314Z,45.29
2018-06-27T12:06:59.302Z,48.02
2018-06-27T12:07:59.327Z,49.85
2018-06-27T12:08:59.305Z,50.82
2018-06-27T12:09:59.353Z,50.31
2018-06-27T12:10:59.305Z,49.92
2018-06-27T12:11:59.320Z,47.78
2018-06-27T12:12:59.320Z,49.71
2018-06-27T12:13:59.313Z,49.80
2018-06-27T12:14:59.318Z,49.61
2018-06-27T12:15:59.350Z,51.43
2018-06-27T12:16:59.361Z,51.62
2018-06-27T12:17:59.323Z,51.31
2018-06-27T12:18:59.340Z,52.09
2018-06-27T12:19:59.423Z,52.06
2018-06-27T12:20:59.329Z,52.55
2018-06-27T12:21:59.361Z,52.74
2018-06-27T12:22:59.358Z,52.72
2018-06-27T12:24:01.970Z,53.49
2018-06-27T12:24:59.325Z,47.45
2018-06-27T12:25:59.332Z,48.42
2018-06-27T12:26:59.330Z,49.75
2018-06-27T12:27:59.366Z,51.59
2018-06-27T12:28:59.354Z,52.66
2018-06-27T12:29:59.327Z,53.63
2018-06-27T12:30:59.328Z,52.64
2018-06-27T12:31:59.323Z,53.80
2018-06-27T12:32:59.355Z,54.41
2018-06-27T12:33:59.324Z,54.11
2018-06-27T12:34:59.313Z,54.60
2018-06-27T12:35:59.319Z,55.38
2018-06-27T12:36:59.322Z,53.92
2018-06-27T12:37:59.462Z,54.28
2018-06-27T12:38:59.340Z,54.48
2018-06-27T12:39:59.308Z,55.44
2018-06-27T12:40:59.965Z,51.86
2018-06-27T12:41:59.319Z,51.37
2018-06-27T12:42:59.307Z,53.31
2018-06-27T12:43:59.347Z,50.21
2018-06-27T12:44:59.314Z,51.64
2018-06-27T12:45:59.312Z,53.67
2018-06-27T12:46:59.312Z,54.16
2018-06-27T12:47:59.307Z,50.96
2018-06-27T12:48:59.340Z,53.19
2018-06-27T12:49:59.389Z,53.67
2018-06-27T12:50:59.337Z,54.26
2018-06-27T12:51:59.312Z,54.84